Time;durP1;ratioP1;P1;durP2;ratioP2;P2;SDS_P1;SDS_P2;PMS_P1;PMS_P2;Temp;Humidity;BMP_temperature;BMP_pressure;BME280_temperature;BME280_humidity;BME280_pressure;Samples;Min_cycle;Max_cycle;Signal;HPM_P1;HPM_P2
2022/06/09 00:01:57;;;;;;;2.97;1.50;;;17.10;72.40;;;;;;5030253;28;20437;-49
2022/06/09 00:04:33;;;;;;;4.60;1.50;;;17.10;72.60;;;;;;5029984;28;20045;-56
2022/06/09 00:07:07;;;;;;;9.82;1.88;;;17.10;72.70;;;;;;5030742;28;20103;-47
2022/06/09 00:09:45;;;;;;;4.15;1.40;;;17.00;72.50;;;;;;5023453;28;20045;-51
2022/06/09 00:12:20;;;;;;;3.20;1.27;;;17.00;72.60;;;;;;5025417;28;20042;-51
2022/06/09 00:14:53;;;;;;;3.03;1.45;;;17.00;72.40;;;;;;5029231;28;20069;-51
2022/06/09 00:17:22;;;;;;;;;;;17.00;72.50;;;;;;5031419;28;20664;-48
2022/06/09 00:19:49;;;;;;;5.05;2.17;;;17.00;72.50;;;;;;5025659;28;20024;-51
2022/06/09 00:22:18;;;;;;;7.45;2.25;;;17.00;72.20;;;;;;5030327;28;20050;-49
2022/06/09 00:24:49;;;;;;;4.32;2.10;;;16.90;72.30;;;;;;5029007;28;20045;-51
2022/06/09 00:27:16;;;;;;;4.97;1.80;;;16.90;72.40;;;;;;5032642;28;20044;-51
2022/06/09 00:29:46;;;;;;;6.95;1.60;;;16.90;72.60;;;;;;5012408;28;20037;-54
2022/06/09 00:32:13;;;;;;;5.95;1.67;;;16.90;72.70;;;;;;5030472;28;20095;-49
2022/06/09 00:34:42;;;;;;;5.00;1.73;;;16.90;72.90;;;;;;5028797;28;20387;-48
2022/06/09 00:37:12;;;;;;;2.92;1.35;;;16.90;72.90;;;;;;5024507;28;20470;-51
2022/06/09 00:39:41;;;;;;;6.00;1.85;;;16.90;72.90;;;;;;5029481;28;20045;-50
2022/06/09 00:42:09;;;;;;;4.13;1.73;;;16.90;72.80;;;;;;5029857;28;20049;-50
2022/06/09 00:44:37;;;;;;;5.95;1.33;;;16.90;72.80;;;;;;5028637;28;20038;-50
2022/06/09 00:47:15;;;;;;;3.40;1.58;;;17.00;72.90;;;;;;5020096;28;20399;-49
2022/06/09 00:50:14;;;;;;;7.15;1.77;;;17.00;72.90;;;;;;5022230;28;20073;-56
2022/06/09 00:52:47;;;;;;;5.28;1.95;;;17.00;73.10;;;;;;5023023;28;20057;-49
2022/06/09 00:55:20;;;;;;;3.92;1.60;;;17.00;72.80;;;;;;5025804;28;20452;-56
2022/06/09 00:58:12;;;;;;;5.13;1.40;;;17.00;72.80;;;;;;5027653;28;20044;-49
2022/06/09 01:00:51;;;;;;;5.60;1.60;;;17.00;72.80;;;;;;5014359;28;20111;-48
2022/06/09 01:03:24;;;;;;;2.85;1.25;;;17.00;72.80;;;;;;5029192;28;20041;-51
2022/06/09 01:06:06;;;;;;;4.85;2.15;;;17.00;72.50;;;;;;5017371;28;20572;-50
2022/06/09 01:08:43;;;;;;;4.88;1.65;;;16.90;72.70;;;;;;5029112;28;20144;-51
2022/06/09 01:11:14;;;;;;;7.07;1.63;;;16.90;72.70;;;;;;5028943;28;20076;-49
2022/06/09 01:13:41;;;;;;;3.85;1.48;;;16.90;72.50;;;;;;5028451;28;20119;-51
2022/06/09 01:16:24;;;;;;;7.45;1.75;;;16.90;72.60;;;;;;5027768;28;20160;-48
2022/06/09 01:19:01;;;;;;;3.30;1.38;;;16.90;72.80;;;;;;5030200;28;20041;-48
2022/06/09 01:22:02;;;;;;;3.72;1.60;;;16.90;72.90;;;;;;5028080;28;20087;-50
2022/06/09 01:25:01;;;;;;;7.53;2.05;;;16.90;73.20;;;;;;5025646;28;20038;-51
2022/06/09 01:28:07;;;;;;;3.38;1.67;;;16.90;73.10;;;;;;5030057;28;20098;-51
2022/06/09 01:30:39;;;;;;;6.05;1.73;;;16.90;73.20;;;;;;5023283;28;20095;-51
2022/06/09 01:33:16;;;;;;;11.25;2.75;;;16.80;72.80;;;;;;5028221;28;20064;-49
2022/06/09 01:35:55;;;;;;;4.97;2.08;;;16.80;73.40;;;;;;5026350;28;20053;-49
2022/06/09 01:38:26;;;;;;;5.28;1.67;;;16.80;72.80;;;;;;5029604;28;20099;-49
2022/06/09 01:40:53;;;;;;;4.93;1.90;;;16.80;72.80;;;;;;5027479;28;20528;-47
2022/06/09 01:43:20;;;;;;;4.93;2.13;;;16.80;72.80;;;;;;5019926;28;20053;-49
2022/06/09 01:46:11;;;;;;;9.10;2.05;;;16.80;72.90;;;;;;5027318;28;20124;-48
2022/06/09 01:48:42;;;;;;;7.22;1.77;;;16.80;73.30;;;;;;5022411;28;20045;-51
2022/06/09 01:51:12;;;;;;;5.43;2.15;;;16.80;72.80;;;;;;5005653;28;20057;-51
2022/06/09 01:54:09;;;;;;;6.05;1.90;;;16.80;73.10;;;;;;5021520;28;20075;-50
2022/06/09 01:56:43;;;;;;;6.93;1.63;;;16.80;73.60;;;;;;4992169;28;20057;-50
2022/06/09 01:59:20;;;;;;;10.70;2.10;;;16.90;73.30;;;;;;5024181;28;20041;-51
2022/06/09 02:01:59;;;;;;;5.68;1.98;;;16.90;73.40;;;;;;5019449;28;20512;-49
2022/06/09 02:04:34;;;;;;;7.95;2.33;;;16.90;73.50;;;;;;5027375;28;20042;-49
2022/06/09 02:07:06;;;;;;;4.63;2.55;;;16.90;73.40;;;;;;5028610;28;20099;-51
2022/06/09 02:09:40;;;;;;;5.78;2.15;;;16.90;73.40;;;;;;5029899;28;20095;-48
2022/06/09 02:12:16;;;;;;;6.65;2.35;;;16.90;73.20;;;;;;5027844;28;20099;-48
2022/06/09 02:14:51;;;;;;;5.28;2.15;;;16.90;73.30;;;;;;5024410;28;20778;-52
2022/06/09 02:17:24;;;;;;;8.45;2.05;;;16.90;73.40;;;;;;5033117;28;20041;-48
2022/06/09 02:19:52;;;;;;;9.50;2.67;;;16.90;73.00;;;;;;5032212;28;20049;-51
2022/06/09 02:22:19;;;;;;;6.15;2.25;;;16.90;73.10;;;;;;5025937;28;20099;-48
2022/06/09 02:24:53;;;;;;;6.95;1.80;;;16.90;73.10;;;;;;5031929;28;20122;-51
2022/06/09 02:27:19;;;;;;;7.93;2.40;;;16.80;73.30;;;;;;5036949;28;20044;-50
2022/06/09 02:29:47;;;;;;;7.38;2.20;;;16.90;73.30;;;;;;5052099;28;20053;-50
2022/06/09 02:32:16;;;;;;;7.03;2.60;;;16.80;73.40;;;;;;5028645;28;20053;-48
2022/06/09 02:34:42;;;;;;;8.48;3.03;;;16.80;73.50;;;;;;5031374;28;20049;-50
2022/06/09 02:37:16;;;;;;;6.90;2.60;;;16.90;73.60;;;;;;5032512;28;20045;-47
2022/06/09 02:39:43;;;;;;;10.57;2.22;;;16.90;73.70;;;;;;5031002;28;20052;-49
2022/06/09 02:42:13;;;;;;;7.88;2.58;;;16.90;73.70;;;;;;5027644;28;20049;-48
2022/06/09 02:44:42;;;;;;;8.98;3.28;;;17.00;73.80;;;;;;5023380;28;20048;-50
2022/06/09 02:47:15;;;;;;;8.35;2.70;;;17.00;73.80;;;;;;5032875;28;20037;-49
2022/06/09 02:49:41;;;;;;;7.68;2.55;;;17.00;73.70;;;;;;5027902;28;20544;-52
2022/06/09 02:52:10;;;;;;;5.68;2.60;;;17.00;73.50;;;;;;5031984;28;20046;-51
2022/06/09 02:54:37;;;;;;;13.35;2.97;;;17.00;73.50;;;;;;5014846;28;20570;-52
2022/06/09 02:57:04;;;;;;;11.70;2.92;;;17.00;73.20;;;;;;5030548;28;20553;-51
2022/06/09 02:59:31;;;;;;;8.50;2.80;;;17.00;73.20;;;;;;5028706;28;20133;-50
2022/06/09 03:01:58;;;;;;;7.75;3.13;;;17.00;73.20;;;;;;5031832;28;20069;-48
2022/06/09 03:04:32;;;;;;;8.50;2.47;;;17.00;73.10;;;;;;5032481;28;20041;-51
2022/06/09 03:06:59;;;;;;;7.85;3.63;;;17.00;72.90;;;;;;5029390;28;20386;-51
2022/06/09 03:09:29;;;;;;;9.55;2.97;;;17.00;72.90;;;;;;5027178;28;20099;-51
2022/06/09 03:11:57;;;;;;;9.98;3.25;;;17.00;72.90;;;;;;5033118;28;20107;-47
2022/06/09 03:14:24;;;;;;;8.05;3.03;;;16.90;73.50;;;;;;5045780;22;20029;-51
2022/06/09 03:16:53;;;;;;;7.90;2.75;;;16.90;72.80;;;;;;5027992;28;20481;-50
2022/06/09 03:19:23;;;;;;;10.82;3.13;;;16.80;72.80;;;;;;5033527;28;20045;-54
2022/06/09 03:21:52;;;;;;;8.15;3.53;;;16.90;72.90;;;;;;5035817;28;20068;-52
2022/06/09 03:24:19;;;;;;;5.25;3.20;;;16.80;73.00;;;;;;5042121;28;20099;-53
2022/06/09 03:26:53;;;;;;;9.02;3.15;;;16.80;73.00;;;;;;5042980;28;20067;-51
2022/06/09 03:29:26;;;;;;;7.07;3.53;;;16.80;73.30;;;;;;5029368;28;20437;-54
2022/06/09 03:31:56;;;;;;;6.55;3.10;;;16.80;73.50;;;;;;5050292;28;20045;-53
2022/06/09 03:34:25;;;;;;;13.13;2.90;;;16.70;73.40;;;;;;5034473;28;20103;-50
2022/06/09 03:36:54;;;;;;;9.10;3.00;;;16.70;73.50;;;;;;5031213;28;20496;-52
2022/06/09 03:39:21;;;;;;;5.97;2.40;;;16.70;73.50;;;;;;5043064;28;20041;-54
2022/06/09 03:41:48;;;;;;;9.05;3.00;;;16.70;73.60;;;;;;5052310;28;20037;-49
2022/06/09 03:44:23;;;;;;;11.00;2.70;;;16.70;73.70;;;;;;5040189;28;20443;-54
2022/06/09 03:46:50;;;;;;;9.20;3.38;;;16.70;73.70;;;;;;5034131;28;20070;-53
2022/06/09 03:49:19;;;;;;;10.23;3.13;;;16.70;73.60;;;;;;5041460;28;20103;-49
2022/06/09 03:51:46;;;;;;;9.52;4.05;;;16.70;73.80;;;;;;5034213;28;20051;-52
2022/06/09 03:54:15;;;;;;;9.88;3.50;;;16.70;73.80;;;;;;5036049;28;20068;-54
2022/06/09 03:56:42;;;;;;;7.35;3.10;;;16.80;73.90;;;;;;5036932;28;20056;-52
2022/06/09 03:59:13;;;;;;;13.18;3.83;;;16.80;73.70;;;;;;5035601;28;20508;-49
2022/06/09 04:01:44;;;;;;;11.15;3.72;;;16.70;73.70;;;;;;5036820;28;20416;-50
2022/06/09 04:04:11;;;;;;;12.25;3.90;;;16.80;73.60;;;;;;5037612;28;20034;-53
2022/06/09 04:06:44;;;;;;;13.52;4.93;;;16.80;73.50;;;;;;5031135;28;20528;-54
2022/06/09 04:09:13;;;;;;;7.38;3.10;;;16.70;73.50;;;;;;5029888;28;20068;-52
2022/06/09 04:11:41;;;;;;;12.30;3.83;;;16.70;73.50;;;;;;5036398;28;20460;-53
2022/06/09 04:14:08;;;;;;;13.82;4.20;;;16.70;73.60;;;;;;5030875;28;20609;-52
2022/06/09 04:16:37;;;;;;;7.65;3.72;;;16.70;73.80;;;;;;5039944;28;20049;-51
2022/06/09 04:19:10;;;;;;;11.48;3.90;;;16.70;74.00;;;;;;5024354;28;20060;-49
2022/06/09 04:21:42;;;;;;;10.52;4.50;;;16.70;74.00;;;;;;5028970;28;20046;-51
2022/06/09 04:24:09;;;;;;;9.23;3.17;;;16.70;74.10;;;;;;5033368;28;20030;-52
2022/06/09 04:26:39;;;;;;;12.70;3.83;;;16.70;74.20;;;;;;5030728;28;20041;-52
2022/06/09 04:29:07;;;;;;;11.40;3.83;;;16.80;74.30;;;;;;5029976;28;20049;-54
2022/06/09 04:31:34;;;;;;;11.60;4.15;;;16.70;74.30;;;;;;5024652;28;20046;-54
2022/06/09 04:34:01;;;;;;;8.73;3.58;;;16.80;74.30;;;;;;5031703;28;20065;-53
2022/06/09 04:36:28;;;;;;;9.68;3.97;;;16.80;74.20;;;;;;5034474;28;20116;-54
2022/06/09 04:39:00;;;;;;;9.60;4.18;;;16.90;74.20;;;;;;5029916;28;20039;-47
2022/06/09 04:41:27;;;;;;;7.85;4.03;;;16.90;74.10;;;;;;5029595;28;20646;-51
2022/06/09 04:43:54;;;;;;;9.23;4.20;;;16.90;74.00;;;;;;5033190;28;20037;-53
2022/06/09 04:46:23;;;;;;;9.23;4.10;;;16.90;73.80;;;;;;5030013;28;20049;-50
2022/06/09 04:48:51;;;;;;;7.72;3.63;;;16.90;73.90;;;;;;5030142;28;20068;-50
2022/06/09 04:51:19;;;;;;;8.10;3.63;;;16.80;73.80;;;;;;5029743;28;20095;-51
2022/06/09 04:53:48;;;;;;;9.10;3.92;;;16.90;74.00;;;;;;5033925;28;20068;-52
2022/06/09 04:56:18;;;;;;;12.18;3.75;;;16.90;74.00;;;;;;5029452;28;20152;-51
2022/06/09 04:58:47;;;;;;;14.95;5.20;;;16.90;74.10;;;;;;5030069;28;20049;-53
2022/06/09 05:01:24;;;;;;;12.75;3.70;;;16.90;74.10;;;;;;5023733;28;20065;-54
2022/06/09 05:03:52;;;;;;;8.55;4.25;;;16.90;74.30;;;;;;5039397;28;20042;-54
2022/06/09 05:06:21;;;;;;;10.35;4.00;;;16.90;74.50;;;;;;5046532;28;20037;-53
2022/06/09 05:08:48;;;;;;;9.15;4.25;;;17.00;74.40;;;;;;5048436;28;20048;-51
2022/06/09 05:11:16;;;;;;;9.90;3.67;;;17.00;74.40;;;;;;5031049;28;20099;-50
2022/06/09 05:13:46;;;;;;;6.53;3.28;;;17.10;74.30;;;;;;5028340;28;20496;-53
2022/06/09 05:16:14;;;;;;;13.32;3.90;;;17.10;74.40;;;;;;5031814;28;20130;-53
2022/06/09 05:18:41;;;;;;;16.40;5.07;;;17.10;74.50;;;;;;5032256;28;20125;-54
2022/06/09 05:21:09;;;;;;;8.43;4.13;;;17.20;74.40;;;;;;5040094;28;20045;-52
2022/06/09 05:23:37;;;;;;;8.82;4.50;;;17.20;74.40;;;;;;5010937;28;20050;-51
2022/06/09 05:26:06;;;;;;;10.18;3.88;;;17.30;74.40;;;;;;5014023;28;20037;-51
2022/06/09 05:28:33;;;;;;;12.52;4.18;;;17.40;74.30;;;;;;5034198;28;20044;-52
2022/06/09 05:31:00;;;;;;;16.88;4.55;;;17.40;74.30;;;;;;5028441;28;20128;-54
2022/06/09 05:33:27;;;;;;;9.65;4.68;;;17.50;74.20;;;;;;5019573;28;20038;-54
2022/06/09 05:35:54;;;;;;;8.38;3.80;;;17.50;74.10;;;;;;5024688;28;20050;-53
2022/06/09 05:46:41;;;;;;;9.77;4.75;;;17.80;73.40;;;;;;5021755;28;20468;-54
2022/06/09 05:49:15;;;;;;;14.25;4.60;;;17.90;73.20;;;;;;5020425;28;20068;-51
2022/06/09 05:51:42;;;;;;;12.05;4.32;;;18.00;73.20;;;;;;5032870;28;20052;-51
2022/06/09 05:54:09;;;;;;;8.70;4.20;;;18.10;72.90;;;;;;5035154;28;20049;-51
2022/06/09 05:56:37;;;;;;;11.98;4.85;;;18.10;72.80;;;;;;5025962;28;20534;-53
2022/06/09 05:59:04;;;;;;;15.57;5.10;;;18.20;72.60;;;;;;5023101;28;20413;-52
2022/06/09 06:01:30;;;;;;;9.65;5.15;;;18.20;72.40;;;;;;5013861;28;20061;-53
2022/06/09 06:03:58;;;;;;;12.15;5.68;;;18.30;72.40;;;;;;5027882;28;20033;-53
2022/06/09 06:06:34;;;;;;;12.43;5.00;;;18.30;72.30;;;;;;5005654;28;20037;-51
2022/06/09 06:09:15;;;;;;;13.90;6.25;;;18.40;72.40;;;;;;5025849;28;20029;-53
2022/06/09 06:11:43;;;;;;;15.23;5.30;;;18.40;71.70;;;;;;5017749;28;20124;-51
2022/06/09 06:14:10;;;;;;;14.00;6.28;;;18.50;71.60;;;;;;5025367;28;20045;-51
2022/06/09 06:16:38;;;;;;;14.35;5.70;;;18.50;71.50;;;;;;5027281;28;20800;-50
2022/06/09 06:19:07;;;;;;;10.75;5.25;;;18.50;71.70;;;;;;5041670;28;20522;-51
2022/06/09 06:21:36;;;;;;;13.07;6.65;;;18.60;71.80;;;;;;5026671;28;20041;-53
2022/06/09 06:24:03;;;;;;;17.00;7.25;;;18.70;71.60;;;;;;5024738;28;20056;-51
2022/06/09 06:26:31;;;;;;;12.07;7.47;;;18.60;71.30;;;;;;5029833;28;20087;-50
2022/06/09 06:28:58;;;;;;;9.38;6.28;;;18.70;71.40;;;;;;5038736;28;20072;-50
2022/06/09 06:31:25;;;;;;;13.30;7.03;;;18.70;71.60;;;;;;5046370;28;20709;-53
2022/06/09 06:33:52;;;;;;;12.75;7.53;;;18.70;71.50;;;;;;5037239;28;20053;-51
2022/06/09 06:36:19;;;;;;;15.27;8.75;;;18.80;70.90;;;;;;5038989;28;20045;-54
2022/06/09 06:38:48;;;;;;;16.33;8.27;;;18.80;70.40;;;;;;5040158;28;20158;-54
2022/06/09 06:41:18;;;;;;;13.05;7.97;;;18.80;70.40;;;;;;5025111;28;20056;-51
2022/06/09 06:43:47;;;;;;;13.40;8.32;;;18.80;70.20;;;;;;5027904;28;20041;-53
2022/06/09 06:46:15;;;;;;;12.18;7.38;;;18.80;70.50;;;;;;5026686;28;20037;-52
2022/06/09 06:48:46;;;;;;;12.77;6.93;;;18.80;70.60;;;;;;5032192;28;20042;-54
2022/06/09 06:51:13;;;;;;;14.27;8.13;;;18.80;70.40;;;;;;5008628;28;20444;-52
2022/06/09 06:53:41;;;;;;;14.98;7.22;;;18.80;70.30;;;;;;5034307;28;20599;-51
2022/06/09 06:56:09;;;;;;;12.63;7.95;;;18.80;70.20;;;;;;5039175;28;20041;-52
2022/06/09 06:58:40;;;;;;;16.48;8.70;;;18.80;70.50;;;;;;5042115;28;20075;-52
2022/06/09 07:01:06;;;;;;;17.30;9.73;;;18.80;70.50;;;;;;5008684;28;20069;-52
2022/06/09 07:03:33;;;;;;;16.17;9.25;;;18.80;70.00;;;;;;5025575;28;20121;-53
2022/06/09 07:06:03;;;;;;;13.80;9.13;;;18.80;70.30;;;;;;5033336;28;20052;-50
2022/06/09 07:08:30;;;;;;;18.65;9.50;;;18.90;71.20;;;;;;5013549;28;20049;-53
2022/06/09 07:10:57;;;;;;;10.02;8.85;;;18.90;70.50;;;;;;5027924;28;20048;-55
2022/06/09 07:13:26;;;;;;;16.70;10.27;;;19.00;70.40;;;;;;5030200;28;20052;-54
2022/06/09 07:15:53;;;;;;;16.85;9.27;;;19.00;70.20;;;;;;5035870;28;20045;-51
2022/06/09 07:18:30;;;;;;;12.15;8.48;;;19.00;70.00;;;;;;5038040;28;20041;-50
2022/06/09 07:20:57;;;;;;;14.95;9.48;;;19.10;70.30;;;;;;5025547;28;20521;-51
2022/06/09 07:23:28;;;;;;;15.65;10.63;;;19.10;70.80;;;;;;5041605;28;20091;-52
2022/06/09 07:25:56;;;;;;;13.00;9.25;;;19.20;70.70;;;;;;5034888;28;20045;-53
2022/06/09 07:28:24;;;;;;;11.50;9.13;;;19.20;70.60;;;;;;5030690;28;20041;-53
2022/06/09 07:30:56;;;;;;;12.65;9.85;;;19.30;70.40;;;;;;5024862;28;20053;-55
2022/06/09 07:33:27;;;;;;;;;;;19.50;70.30;;;;;;5030268;28;20560;-54
2022/06/09 07:35:57;;;;;;;11.68;8.27;;;19.70;70.40;;;;;;5029597;28;19975;-54
2022/06/09 07:38:28;;;;;;;9.55;7.65;;;19.70;69.50;;;;;;5028679;28;20038;-51
2022/06/09 07:40:55;;;;;;;14.32;9.48;;;19.80;68.80;;;;;;5030540;28;20060;-54
2022/06/09 07:43:42;;;;;;;12.05;8.20;;;19.90;69.00;;;;;;5029990;28;20126;-52
2022/06/09 07:46:09;;;;;;;8.57;7.68;;;20.00;69.40;;;;;;5030066;28;20095;-53
2022/06/09 07:48:38;;;;;;;11.68;8.38;;;20.10;67.90;;;;;;5030869;28;20077;-51
2022/06/09 07:51:15;;;;;;;9.82;6.82;;;20.20;67.30;;;;;;5042278;28;20048;-55
2022/06/09 07:53:42;;;;;;;11.98;8.15;;;20.30;67.10;;;;;;5042602;28;20417;-51
2022/06/09 07:56:10;;;;;;;10.80;7.75;;;20.30;66.80;;;;;;5042974;28;20045;-52
2022/06/09 07:58:38;;;;;;;14.10;7.65;;;20.40;66.50;;;;;;5028477;28;20040;-51
2022/06/09 08:01:05;;;;;;;11.70;7.22;;;20.40;66.10;;;;;;5030799;28;20478;-53
2022/06/09 08:03:32;;;;;;;11.13;7.55;;;20.40;66.30;;;;;;5030114;28;20056;-55
2022/06/09 08:05:59;;;;;;;10.05;7.50;;;20.40;66.00;;;;;;5030125;28;20084;-51
2022/06/09 08:08:48;;;;;;;10.30;7.35;;;20.40;66.30;;;;;;5015813;28;20442;-52
2022/06/09 08:11:15;;;;;;;14.70;8.63;;;20.40;66.30;;;;;;5038471;28;20107;-55
2022/06/09 08:13:42;;;;;;;10.65;7.93;;;20.40;65.80;;;;;;5029380;28;20096;-52
2022/06/09 08:16:09;;;;;;;11.75;8.65;;;20.50;65.50;;;;;;5028193;28;20041;-55
2022/06/09 08:18:36;;;;;;;15.27;9.45;;;20.50;66.30;;;;;;5027071;28;20049;-52
2022/06/09 08:21:03;;;;;;;12.43;8.88;;;20.50;65.80;;;;;;5038805;28;20095;-55
2022/06/09 08:23:48;;;;;;;11.52;8.27;;;20.50;65.80;;;;;;5010047;28;20056;-51
2022/06/09 08:26:14;;;;;;;9.90;7.78;;;20.50;66.00;;;;;;5013070;28;20073;-55
2022/06/09 08:28:41;;;;;;;10.60;7.60;;;20.60;65.40;;;;;;5037922;28;20087;-54
2022/06/09 08:31:08;;;;;;;9.80;8.55;;;20.60;64.70;;;;;;5042509;28;20045;-54
2022/06/09 08:33:35;;;;;;;10.73;8.02;;;20.70;64.80;;;;;;5042787;28;20044;-54
2022/06/09 08:36:03;;;;;;;11.20;8.50;;;20.70;64.40;;;;;;5020810;28;20088;-54
2022/06/09 08:38:30;;;;;;;8.27;7.53;;;20.80;64.40;;;;;;5044552;28;20049;-52
2022/06/09 08:41:03;;;;;;;9.75;8.65;;;20.80;64.40;;;;;;5045304;28;20036;-55
2022/06/09 08:43:31;;;;;;;9.38;7.53;;;20.80;64.50;;;;;;5050759;28;20099;-53
2022/06/09 08:46:06;;;;;;;8.30;6.72;;;20.90;64.50;;;;;;5019416;28;20048;-53
2022/06/09 08:48:43;;;;;;;9.32;7.50;;;21.00;64.00;;;;;;5044341;28;20079;-51
2022/06/09 08:51:15;;;;;;;10.45;7.40;;;21.00;64.10;;;;;;5034032;28;20041;-54
2022/06/09 08:53:54;;;;;;;8.68;7.88;;;21.10;64.10;;;;;;5029159;28;20049;-54
2022/06/09 08:56:27;;;;;;;8.75;5.85;;;21.20;63.60;;;;;;5028738;28;20049;-53
2022/06/09 08:59:07;;;;;;;7.65;6.38;;;21.30;63.20;;;;;;5041380;28;20049;-52
2022/06/09 09:01:56;;;;;;;7.07;5.60;;;21.30;62.60;;;;;;5041294;28;20437;-53
2022/06/09 09:04:32;;;;;;;9.80;6.03;;;21.40;62.30;;;;;;5030286;28;20041;-51
2022/06/09 09:07:10;;;;;;;6.28;5.65;;;21.40;62.20;;;;;;5047028;28;20731;-54
2022/06/09 09:09:37;;;;;;;6.78;5.28;;;21.40;62.70;;;;;;5009893;28;20421;-54
2022/06/09 09:12:30;;;;;;;9.05;6.30;;;21.50;62.50;;;;;;5021692;28;20080;-53
2022/06/09 09:15:21;;;;;;;8.73;5.55;;;21.60;62.10;;;;;;5025351;28;20048;-52
2022/06/09 09:18:19;;;;;;;5.78;5.18;;;21.70;61.60;;;;;;5035146;28;20052;-56
2022/06/09 09:21:27;;;;;;;7.50;5.43;;;21.80;61.10;;;;;;5011996;28;20111;-54
2022/06/09 09:24:20;;;;;;;7.35;5.10;;;21.90;61.10;;;;;;5014930;28;20400;-53
2022/06/09 09:26:48;;;;;;;;;;;21.90;60.00;;;;;;5036383;28;20040;-54
2022/06/09 09:29:59;;;;;;;6.15;5.15;;;22.00;61.60;;;;;;5035702;28;19921;-56
2022/06/09 09:32:29;;;;;;;6.18;5.60;;;22.00;59.80;;;;;;4999168;28;20523;-55
2022/06/09 09:34:58;;;;;;;6.47;5.80;;;22.00;60.20;;;;;;5026448;28;20033;-54
2022/06/09 09:37:48;;;;;;;7.60;5.93;;;22.00;60.20;;;;;;5033441;28;20555;-55
2022/06/09 09:40:28;;;;;;;6.70;5.78;;;22.10;60.00;;;;;;5025104;28;20041;-53
2022/06/09 09:42:58;;;;;;;5.68;4.60;;;22.00;60.10;;;;;;5014413;28;20041;-54
2022/06/09 09:45:47;;;;;;;8.48;5.43;;;22.00;60.70;;;;;;5034375;28;20039;-55
2022/06/09 09:48:17;;;;;;;5.22;3.95;;;22.10;60.10;;;;;;5008597;28;20113;-55
2022/06/09 09:50:47;;;;;;;5.30;3.90;;;22.20;60.30;;;;;;5025586;28;20050;-54
2022/06/09 09:53:35;;;;;;;4.72;4.30;;;22.30;59.50;;;;;;5032685;28;20720;-55
2022/06/09 09:56:13;;;;;;;6.53;4.72;;;22.40;58.50;;;;;;5029250;28;20041;-55
2022/06/09 09:58:48;;;;;;;6.13;3.95;;;22.50;58.70;;;;;;5027663;28;20042;-55
2022/06/09 10:01:21;;;;;;;4.93;4.22;;;22.60;58.60;;;;;;5032510;28;20517;-55
2022/06/09 10:10:25;;;;;;;5.77;4.43;;;22.80;57.90;;;;;;5062651;28;20451;-49
2022/06/09 10:13:16;;;;;;;5.30;3.90;;;22.70;56.90;;;;;;5059531;28;20033;-49
2022/06/09 10:15:43;;;;;;;6.72;4.32;;;22.80;56.70;;;;;;5055808;28;20052;-50
2022/06/09 10:18:18;;;;;;;5.28;4.78;;;22.80;57.60;;;;;;5066932;28;20091;-49
2022/06/09 10:21:10;;;;;;;;;;;22.80;56.40;;;;;;5063698;28;20036;-50
2022/06/09 10:23:56;;;;;;;7.32;3.83;;;22.80;58.10;;;;;;5065773;28;19920;-52
2022/06/09 10:26:40;;;;;;;5.30;4.90;;;22.80;55.80;;;;;;5064930;28;20749;-53
2022/06/09 10:29:10;;;;;;;4.38;4.05;;;22.80;56.80;;;;;;5065445;28;20048;-50
2022/06/09 10:31:45;;;;;;;6.20;4.00;;;22.80;57.20;;;;;;5059285;28;20052;-50
2022/06/09 10:34:34;;;;;;;4.38;2.53;;;22.80;56.60;;;;;;5069963;28;20094;-49
2022/06/09 10:37:12;;;;;;;2.80;2.60;;;22.70;56.60;;;;;;5067941;28;20048;-49
2022/06/09 10:39:54;;;;;;;4.95;3.00;;;22.70;56.70;;;;;;5065005;28;20508;-50
2022/06/09 10:42:44;;;;;;;4.63;3.60;;;22.60;57.60;;;;;;5069934;28;20098;-52
2022/06/09 10:45:50;;;;;;;4.03;3.65;;;22.50;58.10;;;;;;5027938;28;20064;-51
2022/06/09 10:57:24;;;;;;;4.38;3.40;;;22.40;59.90;;;;;;5068807;28;20527;-51
2022/06/09 10:59:59;;;;;;;3.53;3.22;;;22.50;59.90;;;;;;5065754;28;20094;-49
2022/06/09 11:02:29;;;;;;;6.25;4.43;;;22.60;60.50;;;;;;5070377;28;20071;-51
2022/06/09 11:04:57;;;;;;;4.85;4.40;;;22.70;60.50;;;;;;5068391;28;20041;-55
2022/06/09 11:07:54;;;;;;;8.18;4.97;;;22.80;61.00;;;;;;5070858;28;20059;-52
2022/06/09 11:10:30;;;;;;;5.38;3.40;;;23.00;60.10;;;;;;5069946;28;20110;-51
2022/06/09 11:13:09;;;;;;;7.53;3.17;;;23.20;60.50;;;;;;5068623;28;20056;-53
2022/06/09 11:16:01;;;;;;;7.93;4.30;;;23.30;60.20;;;;;;5061171;28;20037;-52
2022/06/09 11:18:34;;;;;;;9.57;3.13;;;23.50;58.50;;;;;;5069839;28;20086;-51
2022/06/09 11:21:15;;;;;;;3.85;3.38;;;23.60;58.40;;;;;;5071802;28;20048;-52
2022/06/09 11:23:59;;;;;;;5.35;3.45;;;23.60;57.80;;;;;;5065932;28;20063;-54
2022/06/09 11:27:22;;;;;;;8.25;3.65;;;23.50;57.20;;;;;;5066236;28;20052;-49
2022/06/09 11:30:31;;;;;;;5.57;2.85;;;23.50;57.40;;;;;;5059949;28;20397;-52
2022/06/09 11:33:20;;;;;;;4.53;3.40;;;23.40;57.50;;;;;;5059353;28;20106;-52
2022/06/09 11:36:02;;;;;;;4.45;2.92;;;23.30;57.40;;;;;;5066369;28;20040;-49
2022/06/09 11:38:53;;;;;;;4.95;3.88;;;23.20;57.80;;;;;;5069958;28;20074;-51
2022/06/09 11:41:43;;;;;;;6.18;3.72;;;23.10;58.20;;;;;;5066289;28;20040;-54
2022/06/09 11:44:18;;;;;;;7.05;3.33;;;23.00;58.80;;;;;;5056349;28;20527;-53
2022/06/09 11:46:45;;;;;;;6.25;3.40;;;22.80;59.20;;;;;;5068390;28;20074;-52
2022/06/09 11:49:40;;;;;;;5.63;3.17;;;22.70;58.90;;;;;;5068711;28;20048;-54
2022/06/09 11:52:22;;;;;;;6.72;2.92;;;22.60;58.10;;;;;;5069211;28;20462;-51
2022/06/09 11:54:58;;;;;;;1.27;1.17;;;22.40;57.60;;;;;;5067260;28;20136;-51
2022/06/09 11:57:34;;;;;;;1.63;1.20;;;22.30;56.60;;;;;;5067294;28;20049;-49
2022/06/09 12:00:19;;;;;;;2.05;1.40;;;22.10;55.90;;;;;;5060190;28;20032;-49
2022/06/09 12:02:48;;;;;;;1.50;1.30;;;21.90;55.40;;;;;;5060728;28;20106;-50
2022/06/09 12:05:26;;;;;;;1.98;1.58;;;21.70;56.20;;;;;;5066691;28;20048;-49
2022/06/09 12:07:53;;;;;;;1.67;1.15;;;21.50;56.80;;;;;;5070339;28;20419;-49
2022/06/09 12:10:29;;;;;;;1.67;1.20;;;21.20;57.00;;;;;;5070460;28;20118;-50
2022/06/09 12:13:19;;;;;;;2.88;1.42;;;21.00;57.70;;;;;;5065363;28;20036;-51
2022/06/09 12:15:51;;;;;;;4.78;2.60;;;20.70;60.70;;;;;;5068385;28;20052;-50
2022/06/09 12:18:19;;;;;;;3.10;1.80;;;20.50;64.20;;;;;;5063292;28;20048;-51
2022/06/09 12:20:46;;;;;;;2.33;1.75;;;20.20;64.50;;;;;;5056495;28;20036;-51
2022/06/09 12:23:31;;;;;;;2.10;1.90;;;19.90;65.30;;;;;;5066389;28;20503;-50
2022/06/09 12:26:09;;;;;;;4.50;2.33;;;19.60;67.60;;;;;;5069852;28;20045;-51
2022/06/09 12:28:55;;;;;;;2.10;1.50;;;19.40;68.80;;;;;;5066892;28;20091;-49
2022/06/09 12:31:32;;;;;;;2.85;2.30;;;19.10;69.10;;;;;;5065578;28;20390;-55
2022/06/09 12:34:11;;;;;;;3.40;2.35;;;18.90;69.50;;;;;;5064867;28;20044;-50
2022/06/09 12:36:38;;;;;;;5.22;2.30;;;18.80;71.10;;;;;;5049283;28;20052;-52
2022/06/09 12:39:21;;;;;;;3.38;2.38;;;18.60;71.00;;;;;;5054939;28;20392;-52
2022/06/09 12:41:53;;;;;;;2.58;2.38;;;18.50;73.20;;;;;;5067248;28;20680;-49
2022/06/09 12:44:23;;;;;;;3.87;3.07;;;18.50;73.00;;;;;;5068192;28;20451;-51
2022/06/09 12:47:18;;;;;;;3.22;2.80;;;18.50;74.10;;;;;;5057888;28;20527;-50
2022/06/09 12:49:56;;;;;;;2.90;2.60;;;18.40;75.20;;;;;;5061349;28;20062;-50
2022/06/09 12:52:45;;;;;;;4.13;2.97;;;18.50;76.00;;;;;;5069441;28;20401;-49
2022/06/09 12:55:18;;;;;;;3.13;2.83;;;18.60;76.70;;;;;;5067643;28;20500;-52
2022/06/09 12:57:49;;;;;;;3.30;2.80;;;18.60;75.70;;;;;;5064843;28;20040;-55
2022/06/09 13:00:27;;;;;;;2.80;2.60;;;18.70;75.90;;;;;;5058644;28;20083;-51
2022/06/09 13:02:55;;;;;;;3.30;3.00;;;18.80;76.70;;;;;;5066366;28;20041;-52
2022/06/09 13:05:27;;;;;;;3.80;2.88;;;18.90;75.80;;;;;;5059985;28;20037;-53
2022/06/09 13:07:58;;;;;;;;;;;19.00;76.10;;;;;;5063438;28;20036;-50
2022/06/09 13:10:33;;;;;;;3.08;2.63;;;19.10;76.90;;;;;;5068082;28;20044;-49
2022/06/09 13:13:20;;;;;;;3.35;2.90;;;19.20;75.20;;;;;;5049470;28;21003;-58
2022/06/09 13:16:00;;;;;;;3.47;3.05;;;19.20;76.90;;;;;;5044519;28;20045;-54
2022/06/09 13:18:32;;;;;;;3.88;3.10;;;19.40;78.20;;;;;;5047359;28;20055;-54
2022/06/09 13:21:11;;;;;;;3.55;2.95;;;19.50;77.20;;;;;;5058280;28;20447;-55
2022/06/09 13:23:40;;;;;;;5.22;4.30;;;19.70;78.20;;;;;;5046349;28;20029;-49
2022/06/09 13:26:13;;;;;;;6.53;5.93;;;19.90;76.60;;;;;;5059690;28;20533;-55
2022/06/09 13:28:55;;;;;;;8.65;7.55;;;20.10;76.70;;;;;;5051626;28;20044;-52
2022/06/09 13:31:39;;;;;;;8.23;7.25;;;20.20;76.70;;;;;;5064662;28;20041;-49
2022/06/09 13:34:33;;;;;;;8.80;7.10;;;20.40;77.60;;;;;;5048078;28;20048;-54
2022/06/09 13:37:10;;;;;;;7.20;6.53;;;20.80;78.40;;;;;;5051731;28;20048;-53
2022/06/09 13:39:48;;;;;;;6.88;6.28;;;21.30;83.00;;;;;;5051115;28;20044;-53
2022/06/09 13:42:26;;;;;;;5.93;5.22;;;21.90;79.30;;;;;;5050369;28;20053;-51
2022/06/09 13:45:04;;;;;;;6.10;5.35;;;22.60;75.10;;;;;;5049440;28;20074;-51